sensor_id;sensor_type;location;lat;lon;timestamp;P1;durP1;ratioP1;P2;durP2;ratioP2
12519;SDS011;6325;49.540;8.364;2023-03-16T00:01:06;8.10;;;7.28;;
12519;SDS011;6325;49.540;8.364;2023-03-16T00:03:34;8.50;;;7.63;;
12519;SDS011;6325;49.540;8.364;2023-03-16T00:06:01;8.10;;;7.30;;
12519;SDS011;6325;49.540;8.364;2023-03-16T00:08:28;7.82;;;7.03;;
12519;SDS011;6325;49.540;8.364;2023-03-16T00:10:55;8.37;;;7.57;;
12519;SDS011;6325;49.540;8.364;2023-03-16T00:13:22;7.85;;;7.10;;
12519;SDS011;6325;49.540;8.364;2023-03-16T00:15:52;8.30;;;7.50;;
12519;SDS011;6325;49.540;8.364;2023-03-16T00:18:19;8.30;;;7.50;;
12519;SDS011;6325;49.540;8.364;2023-03-16T00:20:50;8.02;;;7.22;;
12519;SDS011;6325;49.540;8.364;2023-03-16T00:23:17;7.75;;;7.05;;
12519;SDS011;6325;49.540;8.364;2023-03-16T00:25:44;7.78;;;7.00;;
12519;SDS011;6325;49.540;8.364;2023-03-16T00:28:11;7.82;;;6.95;;
12519;SDS011;6325;49.540;8.364;2023-03-16T00:30:38;7.47;;;6.78;;
12519;SDS011;6325;49.540;8.364;2023-03-16T00:33:06;7.15;;;6.53;;
12519;SDS011;6325;49.540;8.364;2023-03-16T00:35:34;7.03;;;6.32;;
12519;SDS011;6325;49.540;8.364;2023-03-16T00:38:01;6.60;;;6.00;;
12519;SDS011;6325;49.540;8.364;2023-03-16T00:40:29;6.57;;;6.00;;
12519;SDS011;6325;49.540;8.364;2023-03-16T00:42:57;6.28;;;5.78;;
12519;SDS011;6325;49.540;8.364;2023-03-16T00:45:25;6.68;;;6.07;;
12519;SDS011;6325;49.540;8.364;2023-03-16T00:47:52;5.90;;;5.40;;
12519;SDS011;6325;49.540;8.364;2023-03-16T00:50:20;6.10;;;5.33;;
12519;SDS011;6325;49.540;8.364;2023-03-16T00:52:47;6.18;;;5.68;;
12519;SDS011;6325;49.540;8.364;2023-03-16T00:55:17;6.05;;;5.55;;
12519;SDS011;6325;49.540;8.364;2023-03-16T00:57:44;5.80;;;5.30;;
12519;SDS011;6325;49.540;8.364;2023-03-16T01:00:12;5.93;;;5.43;;
12519;SDS011;6325;49.540;8.364;2023-03-16T01:02:41;6.00;;;5.43;;
12519;SDS011;6325;49.540;8.364;2023-03-16T01:05:10;5.75;;;5.25;;
12519;SDS011;6325;49.540;8.364;2023-03-16T01:07:39;6.07;;;5.57;;
12519;SDS011;6325;49.540;8.364;2023-03-16T01:10:07;5.90;;;5.40;;
12519;SDS011;6325;49.540;8.364;2023-03-16T01:12:35;6.03;;;5.43;;
12519;SDS011;6325;49.540;8.364;2023-03-16T01:15:02;5.65;;;5.15;;
12519;SDS011;6325;49.540;8.364;2023-03-16T01:17:31;6.45;;;5.85;;
12519;SDS011;6325;49.540;8.364;2023-03-16T01:19:59;6.30;;;5.70;;
12519;SDS011;6325;49.540;8.364;2023-03-16T01:22:26;5.78;;;5.28;;
12519;SDS011;6325;49.540;8.364;2023-03-16T01:24:54;6.65;;;6.05;;
12519;SDS011;6325;49.540;8.364;2023-03-16T01:27:21;6.05;;;5.55;;
12519;SDS011;6325;49.540;8.364;2023-03-16T01:29:50;5.77;;;5.27;;
12519;SDS011;6325;49.540;8.364;2023-03-16T01:32:16;6.20;;;5.70;;
12519;SDS011;6325;49.540;8.364;2023-03-16T01:34:43;5.93;;;5.43;;
12519;SDS011;6325;49.540;8.364;2023-03-16T01:37:10;5.72;;;5.22;;
12519;SDS011;6325;49.540;8.364;2023-03-16T01:39:37;5.60;;;5.20;;
12519;SDS011;6325;49.540;8.364;2023-03-16T01:42:06;5.97;;;5.47;;
12519;SDS011;6325;49.540;8.364;2023-03-16T01:44:48;5.80;;;5.30;;
12519;SDS011;6325;49.540;8.364;2023-03-16T01:47:16;5.75;;;5.25;;
12519;SDS011;6325;49.540;8.364;2023-03-16T01:49:43;5.47;;;5.00;;
12519;SDS011;6325;49.540;8.364;2023-03-16T01:52:12;5.45;;;4.95;;
12519;SDS011;6325;49.540;8.364;2023-03-16T01:54:44;5.68;;;5.18;;
12519;SDS011;6325;49.540;8.364;2023-03-16T01:57:17;5.43;;;5.00;;
12519;SDS011;6325;49.540;8.364;2023-03-16T01:59:46;5.45;;;4.95;;
12519;SDS011;6325;49.540;8.364;2023-03-16T02:02:18;6.00;;;5.50;;
12519;SDS011;6325;49.540;8.364;2023-03-16T02:04:47;6.20;;;5.60;;
12519;SDS011;6325;49.540;8.364;2023-03-16T02:07:18;6.00;;;5.50;;
12519;SDS011;6325;49.540;8.364;2023-03-16T02:09:49;6.63;;;6.03;;
12519;SDS011;6325;49.540;8.364;2023-03-16T02:12:20;6.60;;;6.00;;
12519;SDS011;6325;49.540;8.364;2023-03-16T02:14:48;6.75;;;6.15;;
12519;SDS011;6325;49.540;8.364;2023-03-16T02:17:16;6.80;;;6.20;;
12519;SDS011;6325;49.540;8.364;2023-03-16T02:19:46;7.10;;;6.40;;
12519;SDS011;6325;49.540;8.364;2023-03-16T02:22:18;7.00;;;6.38;;
12519;SDS011;6325;49.540;8.364;2023-03-16T02:24:48;7.15;;;6.45;;
12519;SDS011;6325;49.540;8.364;2023-03-16T02:27:16;6.80;;;6.20;;
12519;SDS011;6325;49.540;8.364;2023-03-16T02:29:56;7.35;;;6.65;;
12519;SDS011;6325;49.540;8.364;2023-03-16T02:32:28;7.20;;;6.50;;
12519;SDS011;6325;49.540;8.364;2023-03-16T02:34:57;6.68;;;6.07;;
12519;SDS011;6325;49.540;8.364;2023-03-16T02:37:26;6.90;;;6.30;;
12519;SDS011;6325;49.540;8.364;2023-03-16T02:39:53;7.15;;;6.50;;
12519;SDS011;6325;49.540;8.364;2023-03-16T02:42:22;7.65;;;6.95;;
12519;SDS011;6325;49.540;8.364;2023-03-16T02:44:52;6.88;;;6.28;;
12519;SDS011;6325;49.540;8.364;2023-03-16T02:47:31;6.63;;;6.03;;
12519;SDS011;6325;49.540;8.364;2023-03-16T02:50:00;7.57;;;6.88;;
12519;SDS011;6325;49.540;8.364;2023-03-16T02:52:31;6.88;;;6.28;;
12519;SDS011;6325;49.540;8.364;2023-03-16T02:54:59;7.35;;;6.70;;
12519;SDS011;6325;49.540;8.364;2023-03-16T02:57:25;6.88;;;6.22;;
12519;SDS011;6325;49.540;8.364;2023-03-16T02:59:53;7.30;;;6.60;;
12519;SDS011;6325;49.540;8.364;2023-03-16T03:02:21;7.07;;;6.47;;
12519;SDS011;6325;49.540;8.364;2023-03-16T03:04:49;6.97;;;6.37;;
12519;SDS011;6325;49.540;8.364;2023-03-16T03:07:18;6.55;;;6.00;;
12519;SDS011;6325;49.540;8.364;2023-03-16T03:09:46;6.35;;;5.75;;
12519;SDS011;6325;49.540;8.364;2023-03-16T03:12:13;6.43;;;5.70;;
12519;SDS011;6325;49.540;8.364;2023-03-16T03:14:40;6.25;;;5.75;;
12519;SDS011;6325;49.540;8.364;2023-03-16T03:17:08;6.40;;;5.80;;
12519;SDS011;6325;49.540;8.364;2023-03-16T03:19:38;6.80;;;6.20;;
12519;SDS011;6325;49.540;8.364;2023-03-16T03:22:06;7.70;;;7.00;;
12519;SDS011;6325;49.540;8.364;2023-03-16T03:24:33;7.25;;;6.55;;
12519;SDS011;6325;49.540;8.364;2023-03-16T03:27:00;7.22;;;6.63;;
12519;SDS011;6325;49.540;8.364;2023-03-16T03:29:29;7.47;;;6.80;;
12519;SDS011;6325;49.540;8.364;2023-03-16T03:31:58;7.18;;;6.57;;
12519;SDS011;6325;49.540;8.364;2023-03-16T03:34:25;6.90;;;6.38;;
12519;SDS011;6325;49.540;8.364;2023-03-16T03:36:54;7.23;;;6.53;;
12519;SDS011;6325;49.540;8.364;2023-03-16T03:39:21;6.90;;;6.30;;
12519;SDS011;6325;49.540;8.364;2023-03-16T03:41:48;6.80;;;6.20;;
12519;SDS011;6325;49.540;8.364;2023-03-16T03:44:18;6.43;;;5.82;;
12519;SDS011;6325;49.540;8.364;2023-03-16T03:46:45;6.18;;;5.65;;
12519;SDS011;6325;49.540;8.364;2023-03-16T03:49:12;5.88;;;5.38;;
12519;SDS011;6325;49.540;8.364;2023-03-16T03:51:40;5.80;;;5.30;;
12519;SDS011;6325;49.540;8.364;2023-03-16T03:54:08;5.57;;;5.07;;
12519;SDS011;6325;49.540;8.364;2023-03-16T03:56:35;5.50;;;5.10;;
12519;SDS011;6325;49.540;8.364;2023-03-16T03:59:03;9.68;;;8.40;;
12519;SDS011;6325;49.540;8.364;2023-03-16T04:01:30;9.52;;;8.52;;
12519;SDS011;6325;49.540;8.364;2023-03-16T04:03:57;8.63;;;7.60;;
12519;SDS011;6325;49.540;8.364;2023-03-16T04:06:24;7.18;;;6.57;;
12519;SDS011;6325;49.540;8.364;2023-03-16T04:08:53;6.95;;;6.32;;
12519;SDS011;6325;49.540;8.364;2023-03-16T04:11:21;6.50;;;5.90;;
12519;SDS011;6325;49.540;8.364;2023-03-16T04:13:49;6.32;;;5.82;;
12519;SDS011;6325;49.540;8.364;2023-03-16T04:16:17;6.43;;;5.82;;
12519;SDS011;6325;49.540;8.364;2023-03-16T04:18:44;6.50;;;5.90;;
12519;SDS011;6325;49.540;8.364;2023-03-16T04:21:12;6.60;;;6.00;;
12519;SDS011;6325;49.540;8.364;2023-03-16T04:23:41;7.50;;;6.80;;
12519;SDS011;6325;49.540;8.364;2023-03-16T04:26:08;7.95;;;6.82;;
12519;SDS011;6325;49.540;8.364;2023-03-16T04:28:36;6.90;;;6.30;;
12519;SDS011;6325;49.540;8.364;2023-03-16T04:31:04;6.70;;;6.10;;
12519;SDS011;6325;49.540;8.364;2023-03-16T04:33:32;6.90;;;6.30;;
12519;SDS011;6325;49.540;8.364;2023-03-16T04:36:00;7.10;;;6.40;;
12519;SDS011;6325;49.540;8.364;2023-03-16T04:38:29;6.97;;;6.38;;
12519;SDS011;6325;49.540;8.364;2023-03-16T04:40:57;7.47;;;6.78;;
12519;SDS011;6325;49.540;8.364;2023-03-16T04:43:25;7.03;;;6.40;;
12519;SDS011;6325;49.540;8.364;2023-03-16T04:45:53;6.78;;;6.18;;
12519;SDS011;6325;49.540;8.364;2023-03-16T04:48:21;6.85;;;6.22;;
12519;SDS011;6325;49.540;8.364;2023-03-16T04:50:51;7.28;;;6.57;;
12519;SDS011;6325;49.540;8.364;2023-03-16T04:53:17;6.20;;;5.70;;
12519;SDS011;6325;49.540;8.364;2023-03-16T04:55:44;6.72;;;6.13;;
12519;SDS011;6325;49.540;8.364;2023-03-16T04:58:12;6.60;;;6.00;;
12519;SDS011;6325;49.540;8.364;2023-03-16T05:00:38;6.80;;;6.20;;
12519;SDS011;6325;49.540;8.364;2023-03-16T05:03:08;7.15;;;6.45;;
12519;SDS011;6325;49.540;8.364;2023-03-16T05:05:35;7.38;;;6.68;;
12519;SDS011;6325;49.540;8.364;2023-03-16T05:08:02;6.47;;;5.88;;
12519;SDS011;6325;49.540;8.364;2023-03-16T05:10:30;6.90;;;6.30;;
12519;SDS011;6325;49.540;8.364;2023-03-16T05:12:57;7.32;;;6.68;;
12519;SDS011;6325;49.540;8.364;2023-03-16T05:15:24;7.07;;;6.47;;
12519;SDS011;6325;49.540;8.364;2023-03-16T05:17:53;7.38;;;6.70;;
12519;SDS011;6325;49.540;8.364;2023-03-16T05:20:21;6.75;;;6.22;;
12519;SDS011;6325;49.540;8.364;2023-03-16T05:22:49;6.83;;;6.23;;
12519;SDS011;6325;49.540;8.364;2023-03-16T05:25:17;7.55;;;6.82;;
12519;SDS011;6325;49.540;8.364;2023-03-16T05:27:45;7.85;;;7.05;;
12519;SDS011;6325;49.540;8.364;2023-03-16T05:30:14;7.10;;;6.50;;
12519;SDS011;6325;49.540;8.364;2023-03-16T05:32:42;7.00;;;6.40;;
12519;SDS011;6325;49.540;8.364;2023-03-16T05:35:10;6.90;;;6.30;;
12519;SDS011;6325;49.540;8.364;2023-03-16T05:37:39;7.25;;;6.55;;
12519;SDS011;6325;49.540;8.364;2023-03-16T05:40:07;6.65;;;6.05;;
12519;SDS011;6325;49.540;8.364;2023-03-16T05:42:41;7.53;;;6.82;;
12519;SDS011;6325;49.540;8.364;2023-03-16T05:45:09;8.35;;;7.53;;
12519;SDS011;6325;49.540;8.364;2023-03-16T05:47:36;7.90;;;7.15;;
12519;SDS011;6325;49.540;8.364;2023-03-16T05:50:03;8.15;;;7.32;;
12519;SDS011;6325;49.540;8.364;2023-03-16T05:52:33;7.88;;;7.18;;
12519;SDS011;6325;49.540;8.364;2023-03-16T05:55:01;8.20;;;7.40;;
12519;SDS011;6325;49.540;8.364;2023-03-16T05:57:29;7.85;;;7.15;;
12519;SDS011;6325;49.540;8.364;2023-03-16T05:59:56;7.55;;;6.85;;
12519;SDS011;6325;49.540;8.364;2023-03-16T06:02:23;7.95;;;7.15;;
12519;SDS011;6325;49.540;8.364;2023-03-16T06:04:50;6.80;;;6.20;;
12519;SDS011;6325;49.540;8.364;2023-03-16T06:07:17;7.65;;;6.95;;
12519;SDS011;6325;49.540;8.364;2023-03-16T06:09:45;7.15;;;6.45;;
12519;SDS011;6325;49.540;8.364;2023-03-16T06:12:13;7.45;;;6.75;;
12519;SDS011;6325;49.540;8.364;2023-03-16T06:14:40;7.88;;;7.10;;
12519;SDS011;6325;49.540;8.364;2023-03-16T06:17:07;8.10;;;7.40;;
12519;SDS011;6325;49.540;8.364;2023-03-16T06:19:34;8.45;;;7.63;;
12519;SDS011;6325;49.540;8.364;2023-03-16T06:22:01;8.38;;;7.60;;
12519;SDS011;6325;49.540;8.364;2023-03-16T06:24:28;8.13;;;7.37;;
12519;SDS011;6325;49.540;8.364;2023-03-16T06:26:56;9.85;;;8.85;;
12519;SDS011;6325;49.540;8.364;2023-03-16T06:29:24;8.63;;;7.85;;
12519;SDS011;6325;49.540;8.364;2023-03-16T06:31:51;9.60;;;8.70;;
12519;SDS011;6325;49.540;8.364;2023-03-16T06:34:18;8.85;;;8.00;;
12519;SDS011;6325;49.540;8.364;2023-03-16T06:36:53;9.80;;;8.80;;
12519;SDS011;6325;49.540;8.364;2023-03-16T06:39:31;9.82;;;8.93;;
12519;SDS011;6325;49.540;8.364;2023-03-16T06:41:58;9.90;;;9.00;;
12519;SDS011;6325;49.540;8.364;2023-03-16T06:44:26;9.95;;;9.05;;
12519;SDS011;6325;49.540;8.364;2023-03-16T06:46:53;10.55;;;9.55;;
12519;SDS011;6325;49.540;8.364;2023-03-16T06:49:20;10.52;;;9.52;;
12519;SDS011;6325;49.540;8.364;2023-03-16T06:51:47;9.40;;;8.60;;
12519;SDS011;6325;49.540;8.364;2023-03-16T06:54:14;10.25;;;9.35;;
12519;SDS011;6325;49.540;8.364;2023-03-16T06:56:41;10.05;;;9.15;;
12519;SDS011;6325;49.540;8.364;2023-03-16T06:59:08;10.10;;;9.20;;
12519;SDS011;6325;49.540;8.364;2023-03-16T07:01:37;9.88;;;8.88;;
12519;SDS011;6325;49.540;8.364;2023-03-16T07:04:03;10.40;;;9.43;;
12519;SDS011;6325;49.540;8.364;2023-03-16T07:06:30;10.07;;;9.15;;
12519;SDS011;6325;49.540;8.364;2023-03-16T07:08:57;10.00;;;9.00;;
12519;SDS011;6325;49.540;8.364;2023-03-16T07:11:25;10.82;;;9.88;;
12519;SDS011;6325;49.540;8.364;2023-03-16T07:13:52;9.93;;;9.02;;
12519;SDS011;6325;49.540;8.364;2023-03-16T07:16:19;9.95;;;9.00;;
12519;SDS011;6325;49.540;8.364;2023-03-16T07:18:48;9.57;;;8.68;;
12519;SDS011;6325;49.540;8.364;2023-03-16T07:21:14;11.32;;;10.20;;
12519;SDS011;6325;49.540;8.364;2023-03-16T07:23:41;14.73;;;13.05;;
12519;SDS011;6325;49.540;8.364;2023-03-16T07:26:08;13.60;;;12.20;;
12519;SDS011;6325;49.540;8.364;2023-03-16T07:28:36;11.80;;;10.70;;
12519;SDS011;6325;49.540;8.364;2023-03-16T07:31:02;12.05;;;10.88;;
12519;SDS011;6325;49.540;8.364;2023-03-16T07:33:30;10.75;;;9.65;;
12519;SDS011;6325;49.540;8.364;2023-03-16T07:35:59;10.90;;;9.90;;
12519;SDS011;6325;49.540;8.364;2023-03-16T07:38:28;10.82;;;9.82;;
12519;SDS011;6325;49.540;8.364;2023-03-16T07:40:56;11.30;;;10.10;;
12519;SDS011;6325;49.540;8.364;2023-03-16T07:43:24;11.77;;;10.52;;
12519;SDS011;6325;49.540;8.364;2023-03-16T07:45:51;12.32;;;10.75;;
12519;SDS011;6325;49.540;8.364;2023-03-16T07:48:18;10.20;;;9.20;;
12519;SDS011;6325;49.540;8.364;2023-03-16T07:50:45;9.50;;;8.70;;
12519;SDS011;6325;49.540;8.364;2023-03-16T07:53:14;9.30;;;8.50;;
12519;SDS011;6325;49.540;8.364;2023-03-16T07:55:42;9.60;;;8.75;;
12519;SDS011;6325;49.540;8.364;2023-03-16T07:58:09;9.55;;;8.75;;
12519;SDS011;6325;49.540;8.364;2023-03-16T08:00:37;9.40;;;8.50;;
12519;SDS011;6325;49.540;8.364;2023-03-16T08:03:04;9.13;;;8.32;;
12519;SDS011;6325;49.540;8.364;2023-03-16T08:05:31;9.70;;;8.80;;
12519;SDS011;6325;49.540;8.364;2023-03-16T08:07:58;9.00;;;8.20;;
12519;SDS011;6325;49.540;8.364;2023-03-16T08:10:26;8.73;;;7.90;;
12519;SDS011;6325;49.540;8.364;2023-03-16T08:12:54;9.35;;;8.45;;
12519;SDS011;6325;49.540;8.364;2023-03-16T08:15:21;9.25;;;8.45;;
12519;SDS011;6325;49.540;8.364;2023-03-16T08:17:49;9.25;;;8.45;;
12519;SDS011;6325;49.540;8.364;2023-03-16T08:20:16;8.70;;;7.90;;
12519;SDS011;6325;49.540;8.364;2023-03-16T08:22:43;8.73;;;7.93;;
12519;SDS011;6325;49.540;8.364;2023-03-16T08:25:11;9.10;;;8.27;;
12519;SDS011;6325;49.540;8.364;2023-03-16T08:27:40;9.43;;;8.50;;
12519;SDS011;6325;49.540;8.364;2023-03-16T08:30:08;9.13;;;8.32;;
12519;SDS011;6325;49.540;8.364;2023-03-16T08:32:39;8.82;;;8.02;;
12519;SDS011;6325;49.540;8.364;2023-03-16T08:35:06;9.52;;;8.57;;
12519;SDS011;6325;49.540;8.364;2023-03-16T08:37:34;9.13;;;8.30;;
12519;SDS011;6325;49.540;8.364;2023-03-16T08:40:01;8.63;;;7.82;;
12519;SDS011;6325;49.540;8.364;2023-03-16T08:42:30;8.43;;;7.72;;
12519;SDS011;6325;49.540;8.364;2023-03-16T08:44:58;8.70;;;7.90;;
12519;SDS011;6325;49.540;8.364;2023-03-16T08:47:33;8.75;;;7.70;;
12519;SDS011;6325;49.540;8.364;2023-03-16T08:50:00;8.63;;;7.82;;
12519;SDS011;6325;49.540;8.364;2023-03-16T08:52:27;8.00;;;7.30;;
12519;SDS011;6325;49.540;8.364;2023-03-16T08:54:55;7.50;;;6.90;;
12519;SDS011;6325;49.540;8.364;2023-03-16T08:57:22;8.10;;;7.40;;
12519;SDS011;6325;49.540;8.364;2023-03-16T08:59:49;7.63;;;7.03;;
12519;SDS011;6325;49.540;8.364;2023-03-16T09:02:17;7.47;;;6.88;;
12519;SDS011;6325;49.540;8.364;2023-03-16T09:04:44;7.32;;;6.72;;
12519;SDS011;6325;49.540;8.364;2023-03-16T09:07:11;7.80;;;7.10;;
12519;SDS011;6325;49.540;8.364;2023-03-16T09:09:38;7.70;;;7.00;;
12519;SDS011;6325;49.540;8.364;2023-03-16T09:12:05;7.88;;;7.18;;
12519;SDS011;6325;49.540;8.364;2023-03-16T09:14:34;7.10;;;6.50;;
12519;SDS011;6325;49.540;8.364;2023-03-16T09:17:02;6.50;;;6.00;;
12519;SDS011;6325;49.540;8.364;2023-03-16T09:19:30;6.72;;;6.22;;
12519;SDS011;6325;49.540;8.364;2023-03-16T09:21:58;5.90;;;5.40;;
12519;SDS011;6325;49.540;8.364;2023-03-16T09:24:25;5.90;;;5.40;;
12519;SDS011;6325;49.540;8.364;2023-03-16T09:26:52;5.55;;;5.15;;
12519;SDS011;6325;49.540;8.364;2023-03-16T09:29:19;5.13;;;4.68;;
12519;SDS011;6325;49.540;8.364;2023-03-16T09:31:47;6.00;;;5.50;;
12519;SDS011;6325;49.540;8.364;2023-03-16T09:34:14;5.72;;;5.22;;
12519;SDS011;6325;49.540;8.364;2023-03-16T09:36:42;5.30;;;4.90;;
12519;SDS011;6325;49.540;8.364;2023-03-16T09:39:10;5.47;;;4.97;;
12519;SDS011;6325;49.540;8.364;2023-03-16T09:41:40;6.57;;;5.17;;
12519;SDS011;6325;49.540;8.364;2023-03-16T09:44:20;5.45;;;4.95;;
12519;SDS011;6325;49.540;8.364;2023-03-16T09:46:53;5.00;;;4.60;;
12519;SDS011;6325;49.540;8.364;2023-03-16T09:49:23;5.28;;;4.88;;
12519;SDS011;6325;49.540;8.364;2023-03-16T09:51:59;5.40;;;5.00;;
12519;SDS011;6325;49.540;8.364;2023-03-16T09:54:33;4.90;;;4.50;;
12519;SDS011;6325;49.540;8.364;2023-03-16T09:57:04;4.70;;;4.32;;
12519;SDS011;6325;49.540;8.364;2023-03-16T09:59:42;5.30;;;4.90;;
12519;SDS011;6325;49.540;8.364;2023-03-16T10:02:18;5.03;;;4.63;;
12519;SDS011;6325;49.540;8.364;2023-03-16T10:05:04;4.95;;;4.55;;
12519;SDS011;6325;49.540;8.364;2023-03-16T10:07:41;4.40;;;4.10;;
12519;SDS011;6325;49.540;8.364;2023-03-16T10:10:19;4.50;;;4.10;;
12519;SDS011;6325;49.540;8.364;2023-03-16T10:12:53;4.80;;;4.40;;
12519;SDS011;6325;49.540;8.364;2023-03-16T10:15:24;4.63;;;4.22;;
12519;SDS011;6325;49.540;8.364;2023-03-16T10:17:54;5.15;;;4.75;;
12519;SDS011;6325;49.540;8.364;2023-03-16T10:20:26;5.18;;;4.80;;
12519;SDS011;6325;49.540;8.364;2023-03-16T10:22:59;4.40;;;4.10;;
12519;SDS011;6325;49.540;8.364;2023-03-16T10:25:34;4.60;;;4.20;;
12519;SDS011;6325;49.540;8.364;2023-03-16T10:28:08;4.75;;;4.38;;
12519;SDS011;6325;49.540;8.364;2023-03-16T10:30:38;4.63;;;4.22;;
12519;SDS011;6325;49.540;8.364;2023-03-16T10:33:11;4.10;;;3.80;;
12519;SDS011;6325;49.540;8.364;2023-03-16T10:35:44;4.32;;;4.03;;
12519;SDS011;6325;49.540;8.364;2023-03-16T10:38:26;4.00;;;3.70;;
12519;SDS011;6325;49.540;8.364;2023-03-16T10:40:57;4.45;;;4.07;;
12519;SDS011;6325;49.540;8.364;2023-03-16T10:43:25;4.32;;;3.92;;
12519;SDS011;6325;49.540;8.364;2023-03-16T10:45:57;4.10;;;3.80;;
12519;SDS011;6325;49.540;8.364;2023-03-16T10:48:26;4.22;;;3.92;;
12519;SDS011;6325;49.540;8.364;2023-03-16T10:50:53;4.37;;;4.00;;
12519;SDS011;6325;49.540;8.364;2023-03-16T10:53:24;3.90;;;3.60;;
12519;SDS011;6325;49.540;8.364;2023-03-16T10:55:56;4.43;;;4.03;;
12519;SDS011;6325;49.540;8.364;2023-03-16T10:58:28;4.25;;;3.95;;
12519;SDS011;6325;49.540;8.364;2023-03-16T11:00:56;4.45;;;4.05;;
12519;SDS011;6325;49.540;8.364;2023-03-16T11:03:25;4.10;;;3.80;;
12519;SDS011;6325;49.540;8.364;2023-03-16T11:05:55;4.50;;;4.10;;
12519;SDS011;6325;49.540;8.364;2023-03-16T11:08:25;4.18;;;3.88;;
12519;SDS011;6325;49.540;8.364;2023-03-16T11:10:57;4.22;;;3.92;;
12519;SDS011;6325;49.540;8.364;2023-03-16T11:13:30;3.75;;;3.55;;
12519;SDS011;6325;49.540;8.364;2023-03-16T11:15:59;3.80;;;3.50;;
12519;SDS011;6325;49.540;8.364;2023-03-16T11:18:29;3.88;;;3.58;;
12519;SDS011;6325;49.540;8.364;2023-03-16T11:21:02;3.50;;;3.30;;
12519;SDS011;6325;49.540;8.364;2023-03-16T11:23:38;3.72;;;3.42;;
12519;SDS011;6325;49.540;8.364;2023-03-16T11:26:11;3.63;;;3.42;;
12519;SDS011;6325;49.540;8.364;2023-03-16T11:28:45;3.83;;;3.53;;
12519;SDS011;6325;49.540;8.364;2023-03-16T11:31:18;3.80;;;3.50;;
12519;SDS011;6325;49.540;8.364;2023-03-16T11:33:48;3.75;;;3.45;;
12519;SDS011;6325;49.540;8.364;2023-03-16T11:36:37;4.03;;;3.72;;
12519;SDS011;6325;49.540;8.364;2023-03-16T11:39:12;3.97;;;3.67;;
12519;SDS011;6325;49.540;8.364;2023-03-16T11:41:48;4.03;;;3.72;;
12519;SDS011;6325;49.540;8.364;2023-03-16T11:44:25;3.85;;;3.55;;
12519;SDS011;6325;49.540;8.364;2023-03-16T11:47:00;3.78;;;3.47;;
12519;SDS011;6325;49.540;8.364;2023-03-16T11:52:23;3.30;;;3.10;;
12519;SDS011;6325;49.540;8.364;2023-03-16T11:55:02;3.50;;;3.28;;
12519;SDS011;6325;49.540;8.364;2023-03-16T11:57:41;3.50;;;3.30;;
12519;SDS011;6325;49.540;8.364;2023-03-16T12:00:19;3.65;;;3.35;;
12519;SDS011;6325;49.540;8.364;2023-03-16T12:02:58;3.70;;;3.40;;
12519;SDS011;6325;49.540;8.364;2023-03-16T12:05:52;3.60;;;3.40;;
12519;SDS011;6325;49.540;8.364;2023-03-16T12:11:17;3.65;;;3.45;;
12519;SDS011;6325;49.540;8.364;2023-03-16T12:13:53;3.50;;;3.20;;
12519;SDS011;6325;49.540;8.364;2023-03-16T12:16:26;3.58;;;3.28;;
12519;SDS011;6325;49.540;8.364;2023-03-16T12:18:58;3.50;;;3.20;;
12519;SDS011;6325;49.540;8.364;2023-03-16T12:21:27;3.70;;;3.42;;
12519;SDS011;6325;49.540;8.364;2023-03-16T12:23:57;3.40;;;3.20;;
12519;SDS011;6325;49.540;8.364;2023-03-16T12:26:30;3.20;;;3.00;;
12519;SDS011;6325;49.540;8.364;2023-03-16T12:28:59;3.13;;;2.92;;
12519;SDS011;6325;49.540;8.364;2023-03-16T12:31:34;3.30;;;3.10;;
12519;SDS011;6325;49.540;8.364;2023-03-16T12:34:07;3.58;;;3.38;;
12519;SDS011;6325;49.540;8.364;2023-03-16T12:36:45;2.80;;;2.60;;
12519;SDS011;6325;49.540;8.364;2023-03-16T12:39:47;3.10;;;2.90;;
12519;SDS011;6325;49.540;8.364;2023-03-16T12:42:26;3.13;;;2.88;;
12519;SDS011;6325;49.540;8.364;2023-03-16T12:45:07;3.20;;;2.92;;
12519;SDS011;6325;49.540;8.364;2023-03-16T12:47:42;3.33;;;3.13;;
12519;SDS011;6325;49.540;8.364;2023-03-16T12:50:18;3.10;;;2.90;;
12519;SDS011;6325;49.540;8.364;2023-03-16T12:52:46;2.88;;;2.70;;
12519;SDS011;6325;49.540;8.364;2023-03-16T12:55:15;2.83;;;2.72;;
12519;SDS011;6325;49.540;8.364;2023-03-16T12:57:45;3.03;;;2.83;;
12519;SDS011;6325;49.540;8.364;2023-03-16T13:00:15;3.00;;;2.80;;
12519;SDS011;6325;49.540;8.364;2023-03-16T13:02:45;3.10;;;2.90;;
12519;SDS011;6325;49.540;8.364;2023-03-16T13:05:17;2.70;;;2.50;;
12519;SDS011;6325;49.540;8.364;2023-03-16T13:08:03;2.63;;;2.42;;
12519;SDS011;6325;49.540;8.364;2023-03-16T13:10:33;3.00;;;2.80;;
12519;SDS011;6325;49.540;8.364;2023-03-16T13:13:07;3.05;;;2.85;;
12519;SDS011;6325;49.540;8.364;2023-03-16T13:15:37;3.13;;;2.92;;
12519;SDS011;6325;49.540;8.364;2023-03-16T13:18:20;3.20;;;3.00;;
12519;SDS011;6325;49.540;8.364;2023-03-16T13:20:49;3.05;;;2.85;;
12519;SDS011;6325;49.540;8.364;2023-03-16T13:23:20;2.97;;;2.78;;
12519;SDS011;6325;49.540;8.364;2023-03-16T13:28:41;3.00;;;2.70;;
12519;SDS011;6325;49.540;8.364;2023-03-16T13:31:19;3.17;;;2.88;;
12519;SDS011;6325;49.540;8.364;2023-03-16T13:33:50;2.90;;;2.70;;
12519;SDS011;6325;49.540;8.364;2023-03-16T13:36:20;3.35;;;2.90;;
12519;SDS011;6325;49.540;8.364;2023-03-16T13:38:55;3.20;;;3.00;;
12519;SDS011;6325;49.540;8.364;2023-03-16T13:41:27;2.90;;;2.60;;
12519;SDS011;6325;49.540;8.364;2023-03-16T13:43:55;3.22;;;3.03;;
12519;SDS011;6325;49.540;8.364;2023-03-16T13:46:26;2.85;;;2.65;;
12519;SDS011;6325;49.540;8.364;2023-03-16T13:48:56;2.90;;;2.70;;
12519;SDS011;6325;49.540;8.364;2023-03-16T13:51:24;3.03;;;2.83;;
12519;SDS011;6325;49.540;8.364;2023-03-16T13:53:51;3.13;;;2.83;;
12519;SDS011;6325;49.540;8.364;2023-03-16T13:56:20;2.80;;;2.60;;
12519;SDS011;6325;49.540;8.364;2023-03-16T13:58:51;2.92;;;2.72;;
12519;SDS011;6325;49.540;8.364;2023-03-16T14:01:21;2.72;;;2.58;;
12519;SDS011;6325;49.540;8.364;2023-03-16T14:03:50;2.60;;;2.40;;
12519;SDS011;6325;49.540;8.364;2023-03-16T14:06:22;2.72;;;2.53;;
12519;SDS011;6325;49.540;8.364;2023-03-16T14:08:51;2.95;;;2.70;;
12519;SDS011;6325;49.540;8.364;2023-03-16T14:11:21;2.60;;;2.40;;
12519;SDS011;6325;49.540;8.364;2023-03-16T14:13:49;2.80;;;2.60;;
12519;SDS011;6325;49.540;8.364;2023-03-16T14:16:19;2.60;;;2.40;;
12519;SDS011;6325;49.540;8.364;2023-03-16T14:18:54;2.75;;;2.40;;
12519;SDS011;6325;49.540;8.364;2023-03-16T14:21:26;2.20;;;2.10;;
12519;SDS011;6325;49.540;8.364;2023-03-16T14:23:56;2.50;;;2.30;;
12519;SDS011;6325;49.540;8.364;2023-03-16T14:26:24;2.58;;;2.30;;
12519;SDS011;6325;49.540;8.364;2023-03-16T14:28:56;2.30;;;2.20;;
12519;SDS011;6325;49.540;8.364;2023-03-16T14:31:31;2.20;;;2.10;;
12519;SDS011;6325;49.540;8.364;2023-03-16T14:34:00;2.10;;;2.00;;
12519;SDS011;6325;49.540;8.364;2023-03-16T14:36:37;2.10;;;1.90;;
12519;SDS011;6325;49.540;8.364;2023-03-16T14:39:11;2.30;;;2.10;;
12519;SDS011;6325;49.540;8.364;2023-03-16T14:41:40;2.50;;;2.30;;
12519;SDS011;6325;49.540;8.364;2023-03-16T14:44:14;2.55;;;2.35;;
12519;SDS011;6325;49.540;8.364;2023-03-16T14:46:46;2.30;;;2.20;;
12519;SDS011;6325;49.540;8.364;2023-03-16T14:49:18;2.28;;;2.08;;
12519;SDS011;6325;49.540;8.364;2023-03-16T14:51:48;2.70;;;2.50;;
12519;SDS011;6325;49.540;8.364;2023-03-16T14:54:18;2.40;;;2.20;;
12519;SDS011;6325;49.540;8.364;2023-03-16T14:56:47;2.38;;;2.15;;
12519;SDS011;6325;49.540;8.364;2023-03-16T14:59:15;2.10;;;2.00;;
12519;SDS011;6325;49.540;8.364;2023-03-16T15:01:43;2.25;;;2.15;;
12519;SDS011;6325;49.540;8.364;2023-03-16T15:04:12;2.42;;;2.22;;
12519;SDS011;6325;49.540;8.364;2023-03-16T15:06:43;2.15;;;2.00;;
12519;SDS011;6325;49.540;8.364;2023-03-16T15:09:16;2.13;;;2.03;;
12519;SDS011;6325;49.540;8.364;2023-03-16T15:11:54;2.10;;;2.00;;
12519;SDS011;6325;49.540;8.364;2023-03-16T15:14:22;1.88;;;1.77;;
12519;SDS011;6325;49.540;8.364;2023-03-16T15:17:03;2.20;;;1.95;;
12519;SDS011;6325;49.540;8.364;2023-03-16T15:19:31;2.28;;;1.90;;
12519;SDS011;6325;49.540;8.364;2023-03-16T15:21:58;1.90;;;1.80;;
12519;SDS011;6325;49.540;8.364;2023-03-16T15:24:27;1.90;;;1.80;;